Time;durP1;ratioP1;P1;durP2;ratioP2;P2;SDS_P1;SDS_P2;PMS_P1;PMS_P2;Temp;Humidity;BMP_temperature;BMP_pressure;BME280_temperature;BME280_humidity;BME280_pressure;Samples;Min_cycle;Max_cycle;Signal;HPM_P1;HPM_P2
2021/07/12 00:01:45;;;;;;;7.10;3.17;;;13.90;99.90;;;;;;4940087;28;20456;-86
2021/07/12 00:04:11;;;;;;;2.92;2.53;;;13.90;99.90;;;;;;4972042;28;20042;-85
2021/07/12 00:06:37;;;;;;;2.95;2.70;;;13.90;99.90;;;;;;4959298;28;20058;-86
2021/07/12 00:09:04;;;;;;;2.72;2.53;;;13.90;99.90;;;;;;4974001;28;20540;-86
2021/07/12 00:11:30;;;;;;;2.78;2.38;;;13.90;99.90;;;;;;4975261;28;20136;-86
2021/07/12 00:13:56;;;;;;;2.88;2.67;;;13.90;99.90;;;;;;4974950;28;20057;-86
2021/07/12 00:16:22;;;;;;;4.15;2.60;;;13.90;99.90;;;;;;4967096;28;20502;-86
2021/07/12 00:18:48;;;;;;;3.00;2.70;;;13.90;99.90;;;;;;4955073;28;20066;-86
2021/07/12 00:21:14;;;;;;;5.30;2.35;;;13.90;99.90;;;;;;4939713;28;20146;-86
2021/07/12 00:23:40;;;;;;;2.97;2.08;;;13.90;99.90;;;;;;4939770;28;20047;-86
2021/07/12 00:26:06;;;;;;;2.53;2.33;;;14.00;99.90;;;;;;4972999;28;20056;-85
2021/07/12 00:28:32;;;;;;;2.92;2.17;;;13.90;99.90;;;;;;4958880;28;20485;-85
2021/07/12 00:30:58;;;;;;;2.17;1.98;;;14.00;99.90;;;;;;4973807;28;20036;-85
2021/07/12 00:33:24;;;;;;;5.55;1.83;;;13.90;99.90;;;;;;4974665;28;20018;-86
2021/07/12 00:35:50;;;;;;;2.45;2.05;;;14.00;99.90;;;;;;4959543;28;20027;-86
2021/07/12 00:38:17;;;;;;;4.95;1.73;;;13.90;99.90;;;;;;4973111;28;20046;-86
2021/07/12 00:40:43;;;;;;;3.38;1.90;;;14.00;99.90;;;;;;4961031;28;20019;-86
2021/07/12 00:43:09;;;;;;;4.85;2.17;;;13.90;99.90;;;;;;4982376;28;20034;-86
2021/07/12 00:45:37;;;;;;;2.15;1.95;;;14.00;99.90;;;;;;4939545;28;20038;-86
2021/07/12 00:48:05;;;;;;;3.53;2.33;;;14.00;99.90;;;;;;4973284;28;20034;-86
2021/07/12 00:50:33;;;;;;;10.98;2.50;;;13.90;99.90;;;;;;4949753;28;20044;-86
2021/07/12 00:53:02;;;;;;;7.38;2.80;;;13.90;99.90;;;;;;4974712;28;20030;-86
2021/07/12 00:55:31;;;;;;;7.53;2.60;;;13.80;99.90;;;;;;4975061;28;20036;-86
2021/07/12 00:57:59;;;;;;;16.95;2.88;;;13.90;99.90;;;;;;4957536;28;20061;-86
2021/07/12 01:00:26;;;;;;;7.40;3.33;;;13.90;99.90;;;;;;4986969;28;20033;-86
2021/07/12 01:02:52;;;;;;;5.80;3.80;;;13.90;99.90;;;;;;4939533;28;20023;-86
2021/07/12 01:05:22;;;;;;;13.60;4.10;;;13.90;99.90;;;;;;4971111;28;20027;-86
2021/07/12 01:07:52;;;;;;;4.30;3.35;;;13.90;99.90;;;;;;4944307;28;20038;-85
2021/07/12 01:10:19;;;;;;;4.35;3.55;;;13.90;99.90;;;;;;4956208;28;20034;-86
2021/07/12 01:13:07;;;;;;;7.10;3.03;;;13.90;99.90;;;;;;4985511;28;20049;-86
2021/07/12 01:15:49;;;;;;;2.65;2.45;;;14.00;99.90;;;;;;4971014;28;20031;-86
2021/07/12 01:18:52;;;;;;;2.67;2.30;;;14.00;99.90;;;;;;4974343;28;20034;-87
2021/07/12 01:21:53;;;;;;;2.50;2.30;;;14.00;99.90;;;;;;4990402;28;20061;-85
2021/07/12 01:24:18;;;;;;;2.65;2.45;;;14.00;99.90;;;;;;4973898;28;20030;-86
2021/07/12 01:27:17;;;;;;;4.43;3.15;;;14.00;99.90;;;;;;4974098;28;20069;-86
2021/07/12 01:30:37;;;;;;;7.03;3.33;;;14.10;99.90;;;;;;4973023;28;20036;-86
2021/07/12 01:33:15;;;;;;;2.58;2.38;;;14.10;99.90;;;;;;4947702;28;20039;-85
2021/07/12 01:36:02;;;;;;;1.98;1.77;;;14.10;99.90;;;;;;4955036;28;20031;-87
2021/07/12 01:38:43;;;;;;;3.78;1.95;;;14.10;99.90;;;;;;4970601;28;20085;-86
2021/07/12 01:41:40;;;;;;;2.25;2.05;;;14.10;99.90;;;;;;4989730;28;20027;-86
2021/07/12 01:44:11;;;;;;;2.85;2.50;;;14.10;99.90;;;;;;4973860;28;20031;-86
2021/07/12 01:46:52;;;;;;;3.95;2.88;;;14.10;99.90;;;;;;4966323;28;20038;-86
2021/07/12 01:49:38;;;;;;;8.20;3.80;;;14.10;99.90;;;;;;4970169;28;20065;-86
2021/07/12 01:52:30;;;;;;;4.97;4.28;;;14.10;99.90;;;;;;4962733;28;20378;-86
2021/07/12 01:55:08;;;;;;;4.32;3.92;;;14.10;99.90;;;;;;4974064;28;20485;-86
2021/07/12 01:58:06;;;;;;;4.85;4.03;;;14.20;99.90;;;;;;4941581;28;20038;-87
2021/07/12 02:00:33;;;;;;;9.00;4.45;;;14.20;99.90;;;;;;4969775;28;20395;-85
2021/07/12 02:03:02;;;;;;;3.83;3.35;;;14.10;99.90;;;;;;4939467;28;20031;-87
2021/07/12 02:05:35;;;;;;;11.98;4.28;;;14.10;99.90;;;;;;4950873;28;20038;-86
2021/07/12 02:08:07;;;;;;;14.55;4.13;;;14.10;99.90;;;;;;4939742;28;20031;-85
2021/07/12 02:10:33;;;;;;;11.80;4.10;;;14.10;99.90;;;;;;4969664;28;20031;-85
2021/07/12 02:13:05;;;;;;;4.28;3.70;;;14.00;99.90;;;;;;4952371;28;20054;-87
2021/07/12 02:15:40;;;;;;;7.10;4.82;;;13.90;99.90;;;;;;4959656;28;20125;-87
2021/07/12 02:18:26;;;;;;;11.60;4.45;;;13.90;99.90;;;;;;4975892;28;20035;-86
2021/07/12 02:20:58;;;;;;;14.20;3.78;;;13.90;99.90;;;;;;4958223;28;20026;-86
2021/07/12 02:23:28;;;;;;;30.90;4.40;;;13.90;99.90;;;;;;4976378;28;20042;-86
2021/07/12 02:25:57;;;;;;;5.25;4.18;;;13.80;99.90;;;;;;4959833;28;20041;-86
2021/07/12 02:28:25;;;;;;;8.95;5.25;;;13.80;99.90;;;;;;4956808;28;20532;-85
2021/07/12 02:30:52;;;;;;;6.60;5.00;;;13.80;99.90;;;;;;4976146;28;20525;-86
2021/07/12 02:33:21;;;;;;;24.85;5.05;;;13.90;99.90;;;;;;4961462;28;20054;-86
2021/07/12 02:35:48;;;;;;;39.75;5.03;;;13.90;99.90;;;;;;4961344;28;20092;-85
2021/07/12 02:38:16;;;;;;;7.22;4.63;;;13.90;99.90;;;;;;4977104;28;20026;-86
2021/07/12 02:40:45;;;;;;;26.40;5.10;;;13.90;99.90;;;;;;4959813;28;20038;-85
2021/07/12 02:43:11;;;;;;;23.08;4.82;;;13.80;99.90;;;;;;4977001;28;20022;-87
2021/07/12 02:45:39;;;;;;;5.72;4.30;;;13.80;99.90;;;;;;4985357;28;20057;-86
2021/07/12 02:48:06;;;;;;;5.72;4.55;;;13.80;99.90;;;;;;4941241;28;20125;-86
2021/07/12 02:50:35;;;;;;;6.93;4.75;;;13.90;99.90;;;;;;4945141;28;20046;-86
2021/07/12 02:53:10;;;;;;;17.17;5.28;;;13.90;99.90;;;;;;4976653;28;20503;-87
2021/07/12 02:55:36;;;;;;;;;;;13.90;99.90;;;;;;4977192;28;20034;-87
2021/07/12 02:58:02;;;;;;;;;;;13.90;99.90;;;;;;4976018;28;19960;-86
2021/07/12 03:00:28;;;;;;;8.07;4.55;;;13.90;99.90;;;;;;4988571;28;19946;-86
2021/07/12 03:02:55;;;;;;;5.88;4.55;;;13.90;99.90;;;;;;4957931;28;20038;-86
2021/07/12 03:05:22;;;;;;;6.00;4.80;;;13.90;99.90;;;;;;4951610;28;20069;-85
2021/07/12 03:08:22;;;;;;;11.40;5.75;;;13.90;99.90;;;;;;4977107;28;20042;-86
2021/07/12 03:10:55;;;;;;;11.50;6.00;;;14.10;99.90;;;;;;4991479;28;20061;-86
2021/07/12 03:13:43;;;;;;;11.38;6.18;;;14.10;99.90;;;;;;4972516;28;20039;-86
2021/07/12 03:16:11;;;;;;;8.30;6.05;;;14.10;99.90;;;;;;4957089;28;20111;-86
2021/07/12 03:18:44;;;;;;;6.07;3.95;;;14.10;99.90;;;;;;4956487;28;20482;-86
2021/07/12 03:21:12;;;;;;;3.83;3.30;;;14.10;99.90;;;;;;4956566;28;20168;-86
2021/07/12 03:23:42;;;;;;;8.02;4.95;;;14.10;99.90;;;;;;4956980;28;20038;-86
2021/07/12 03:26:10;;;;;;;5.65;3.78;;;14.10;99.90;;;;;;4957134;28;20131;-86
2021/07/12 03:28:39;;;;;;;6.90;3.72;;;14.10;99.90;;;;;;4956891;28;20038;-86
2021/07/12 03:31:09;;;;;;;4.30;3.40;;;14.10;99.90;;;;;;4970596;28;20473;-87
2021/07/12 03:33:39;;;;;;;7.35;5.25;;;14.10;99.90;;;;;;4960782;28;20026;-87
2021/07/12 03:36:07;;;;;;;8.05;4.93;;;14.10;99.90;;;;;;4988686;28;20030;-86
2021/07/12 03:38:33;;;;;;;8.45;6.18;;;14.10;99.90;;;;;;4976367;28;20168;-86
2021/07/12 03:41:02;;;;;;;7.50;5.57;;;14.20;99.90;;;;;;4967518;28;20084;-87
2021/07/12 03:43:28;;;;;;;10.50;6.80;;;14.30;99.90;;;;;;4952243;28;20038;-86
2021/07/12 03:46:00;;;;;;;7.63;5.20;;;14.30;99.90;;;;;;4954737;28;20045;-87
2021/07/12 03:48:35;;;;;;;7.10;5.05;;;14.20;99.90;;;;;;4957345;28;20035;-87
2021/07/12 03:51:05;;;;;;;8.98;6.10;;;14.20;99.90;;;;;;4983052;28;20405;-87
2021/07/12 03:53:35;;;;;;;8.55;6.07;;;14.30;99.90;;;;;;4955690;28;20042;-86
2021/07/12 03:56:01;;;;;;;7.55;5.75;;;14.30;99.90;;;;;;4980023;28;20031;-86
2021/07/12 03:58:27;;;;;;;8.45;5.63;;;14.30;99.90;;;;;;4953662;28;20050;-87
2021/07/12 04:00:53;;;;;;;6.65;5.10;;;14.40;99.90;;;;;;4958504;28;20132;-87
2021/07/12 04:03:19;;;;;;;8.77;5.00;;;14.40;99.90;;;;;;4969672;28;20042;-85
2021/07/12 04:05:45;;;;;;;6.72;4.75;;;14.40;99.90;;;;;;4956304;28;20390;-87
2021/07/12 04:08:11;;;;;;;5.13;4.35;;;14.40;99.90;;;;;;4940201;28;20070;-86
2021/07/12 04:10:37;;;;;;;6.15;3.80;;;14.50;99.90;;;;;;4970910;28;20081;-86
2021/07/12 04:13:04;;;;;;;7.70;4.30;;;14.50;99.90;;;;;;4975763;28;20394;-87
2021/07/12 04:15:30;;;;;;;7.93;5.47;;;14.50;99.90;;;;;;4956267;28;20034;-86
2021/07/12 04:17:55;;;;;;;7.55;5.32;;;14.50;99.90;;;;;;4949008;28;20375;-84
2021/07/12 04:20:21;;;;;;;9.45;6.60;;;14.60;99.90;;;;;;4973241;28;20493;-85
2021/07/12 04:22:47;;;;;;;9.15;6.68;;;14.60;99.90;;;;;;4991784;28;20370;-85
2021/07/12 04:25:13;;;;;;;11.32;6.80;;;14.60;99.90;;;;;;4975572;28;20030;-85
2021/07/12 04:27:40;;;;;;;12.18;7.30;;;14.60;99.90;;;;;;4975494;28;20034;-86
2021/07/12 04:30:08;;;;;;;8.40;5.88;;;14.70;99.90;;;;;;4974309;28;20088;-85
2021/07/12 04:32:34;;;;;;;9.20;5.88;;;14.70;99.90;;;;;;4975453;28;20037;-85
2021/07/12 04:35:00;;;;;;;9.85;7.15;;;14.70;99.90;;;;;;4959184;28;20153;-85
2021/07/12 04:37:26;;;;;;;9.25;6.57;;;14.70;99.90;;;;;;4964031;28;20130;-85
2021/07/12 04:39:52;;;;;;;11.30;7.85;;;14.70;99.90;;;;;;4986280;28;20030;-85
2021/07/12 04:42:18;;;;;;;10.50;7.50;;;14.80;99.90;;;;;;4967503;28;20037;-86
2021/07/12 04:44:43;;;;;;;11.15;8.02;;;14.80;99.90;;;;;;4963614;28;20031;-86
2021/07/12 04:47:10;;;;;;;10.23;7.25;;;14.80;99.90;;;;;;4939763;28;20405;-85
2021/07/12 04:49:35;;;;;;;9.38;6.75;;;14.80;99.90;;;;;;4967774;28;20030;-85
2021/07/12 04:52:02;;;;;;;10.07;6.78;;;14.80;99.90;;;;;;4991336;28;20049;-86
2021/07/12 04:54:28;;;;;;;13.80;8.75;;;14.90;99.90;;;;;;4970993;28;20061;-85
2021/07/12 04:56:54;;;;;;;11.77;8.63;;;14.90;99.90;;;;;;4973846;28;20022;-85
2021/07/12 04:59:27;;;;;;;13.48;9.45;;;14.90;99.90;;;;;;4969262;28;20042;-85
2021/07/12 05:01:54;;;;;;;12.05;9.60;;;15.00;99.90;;;;;;4981637;28;20022;-86
2021/07/12 05:04:20;;;;;;;16.13;11.20;;;15.00;99.90;;;;;;5000928;28;20378;-85
2021/07/12 05:06:46;;;;;;;13.73;9.55;;;15.00;99.90;;;;;;4969947;28;20034;-86
2021/07/12 05:09:13;;;;;;;10.50;7.70;;;15.00;99.90;;;;;;4989037;28;20058;-85
2021/07/12 05:11:39;;;;;;;9.65;6.90;;;15.00;99.90;;;;;;4975753;28;20470;-85
2021/07/12 05:14:06;;;;;;;10.38;7.10;;;15.00;99.90;;;;;;4963766;28;20050;-85
2021/07/12 05:16:33;;;;;;;12.30;7.63;;;14.90;99.90;;;;;;4990641;28;20033;-85
2021/07/12 05:18:59;;;;;;;10.57;6.60;;;14.90;99.90;;;;;;4973199;28;20458;-85
2021/07/12 05:21:25;;;;;;;8.93;6.85;;;14.90;99.90;;;;;;4958491;28;20078;-85
2021/07/12 05:23:51;;;;;;;11.50;7.03;;;15.00;99.90;;;;;;4963074;28;20026;-85
2021/07/12 05:26:17;;;;;;;9.82;7.32;;;15.10;99.90;;;;;;4939718;28;20466;-85
2021/07/12 05:28:43;;;;;;;10.38;7.00;;;15.00;99.90;;;;;;4970937;28;20037;-85
2021/07/12 05:31:09;;;;;;;8.55;6.15;;;15.00;99.90;;;;;;4973919;28;20046;-85
2021/07/12 05:33:35;;;;;;;8.00;6.55;;;15.10;99.90;;;;;;4975165;28;20034;-85
2021/07/12 05:36:01;;;;;;;9.45;7.10;;;15.10;99.90;;;;;;4974994;28;20040;-85
2021/07/12 05:38:26;;;;;;;8.07;6.47;;;15.20;99.90;;;;;;4982954;28;20034;-85
2021/07/12 05:40:53;;;;;;;7.55;6.03;;;15.10;99.90;;;;;;4973535;28;20535;-85
2021/07/12 05:43:18;;;;;;;10.15;7.32;;;15.20;99.90;;;;;;4969850;28;20382;-85
2021/07/12 05:45:44;;;;;;;9.05;7.15;;;15.20;99.90;;;;;;4951137;28;20037;-85
2021/07/12 05:48:10;;;;;;;10.15;8.00;;;15.30;99.90;;;;;;4974408;28;20038;-85
2021/07/12 05:50:36;;;;;;;10.63;7.82;;;15.20;99.90;;;;;;4973206;28;20042;-85
2021/07/12 05:53:03;;;;;;;12.57;7.50;;;15.20;99.90;;;;;;4988090;28;20570;-86
2021/07/12 05:55:29;;;;;;;16.05;10.90;;;15.30;99.90;;;;;;4974545;28;20045;-84
2021/07/12 05:57:55;;;;;;;15.55;9.82;;;15.30;99.90;;;;;;4976538;28;20128;-85
2021/07/12 06:00:21;;;;;;;16.40;11.80;;;15.30;99.90;;;;;;4969184;28;20038;-85
2021/07/12 06:02:47;;;;;;;16.67;11.40;;;15.30;99.90;;;;;;4977549;28;20057;-86
2021/07/12 06:05:13;;;;;;;16.63;11.65;;;15.30;99.90;;;;;;4991052;28;20034;-85
2021/07/12 06:07:40;;;;;;;16.30;10.23;;;15.20;99.90;;;;;;5014217;28;20395;-85
2021/07/12 06:10:07;;;;;;;14.70;10.75;;;15.20;99.90;;;;;;5010854;28;20053;-84
2021/07/12 06:12:33;;;;;;;16.67;10.13;;;15.20;99.90;;;;;;4986957;28;20039;-85
2021/07/12 06:14:59;;;;;;;13.77;9.93;;;15.30;99.90;;;;;;4961279;28;20554;-85
2021/07/12 06:17:25;;;;;;;12.35;8.73;;;15.30;99.90;;;;;;4978142;28;20121;-85
2021/07/12 06:19:51;;;;;;;11.90;8.30;;;15.30;99.90;;;;;;4960813;28;20069;-85
2021/07/12 06:22:17;;;;;;;12.88;8.57;;;15.30;99.90;;;;;;4978152;28;20034;-84
2021/07/12 06:24:42;;;;;;;12.15;8.52;;;15.30;99.90;;;;;;4973839;28;20089;-85
2021/07/12 06:27:08;;;;;;;11.10;8.10;;;15.40;99.90;;;;;;4955366;28;20513;-85
2021/07/12 06:29:34;;;;;;;10.00;6.88;;;15.50;99.90;;;;;;4944831;28;20257;-84
2021/07/12 06:32:00;;;;;;;9.73;7.20;;;15.50;99.90;;;;;;4979374;28;20400;-86
2021/07/12 06:34:25;;;;;;;10.95;7.90;;;15.60;99.90;;;;;;4977705;28;20044;-86
2021/07/12 06:36:51;;;;;;;10.82;7.55;;;15.60;99.90;;;;;;4993285;28;20428;-85
2021/07/12 06:39:18;;;;;;;10.45;7.28;;;15.50;99.90;;;;;;4961207;28;20027;-86
2021/07/12 06:41:43;;;;;;;8.35;6.68;;;15.50;99.90;;;;;;4980979;28;20439;-85
2021/07/12 06:44:09;;;;;;;9.80;6.82;;;15.60;99.90;;;;;;4980761;28;20124;-86
2021/07/12 06:52:20;;;;;;;11.27;8.68;;;15.30;99.90;;;;;;4972371;28;20413;-87
2021/07/12 06:54:46;;;;;;;12.48;9.10;;;15.40;99.90;;;;;;4989629;28;20088;-88
2021/07/12 06:57:13;;;;;;;14.25;9.95;;;15.30;99.90;;;;;;4974132;28;20034;-88
2021/07/12 06:59:39;;;;;;;14.27;10.85;;;15.30;99.90;;;;;;4976019;28;20040;-88
2021/07/12 07:02:06;;;;;;;16.70;12.43;;;15.50;99.90;;;;;;4946847;28;20031;-87
2021/07/12 07:04:32;;;;;;;13.70;10.63;;;15.40;99.90;;;;;;4943327;28;20038;-88
2021/07/12 07:06:57;;;;;;;11.82;9.60;;;15.40;99.90;;;;;;4939854;28;20039;-87
2021/07/12 07:09:29;;;;;;;11.70;8.88;;;15.40;99.90;;;;;;4949073;28;20027;-87
2021/07/12 07:11:54;;;;;;;11.23;7.63;;;15.40;99.90;;;;;;4975696;28;20414;-87
2021/07/12 07:14:20;;;;;;;13.43;9.55;;;15.50;99.90;;;;;;4968376;28;20027;-88
2021/07/12 07:16:46;;;;;;;11.77;8.63;;;15.50;99.90;;;;;;4970144;28;20050;-86
2021/07/12 07:19:12;;;;;;;15.15;11.20;;;15.50;99.90;;;;;;4962742;28;20032;-88
2021/07/12 07:21:40;;;;;;;14.13;10.95;;;15.70;99.90;;;;;;4939871;28;20031;-86
2021/07/12 07:24:06;;;;;;;13.02;10.32;;;15.80;99.90;;;;;;4972717;28;20620;-87
2021/07/12 07:26:33;;;;;;;11.70;9.35;;;15.80;99.90;;;;;;4979109;28;20027;-87
2021/07/12 07:29:00;;;;;;;8.85;7.55;;;15.70;99.90;;;;;;4940986;29;20031;-87
2021/07/12 07:31:25;;;;;;;9.70;7.82;;;15.70;99.90;;;;;;4952411;28;20027;-86
2021/07/12 07:33:51;;;;;;;8.10;6.85;;;15.70;99.90;;;;;;4935852;29;20054;-86
2021/07/12 07:36:17;;;;;;;10.77;7.00;;;15.90;99.90;;;;;;4939940;29;20158;-84
2021/07/12 07:38:44;;;;;;;8.75;6.95;;;16.00;99.90;;;;;;4965520;28;20366;-84
2021/07/12 07:41:13;;;;;;;7.03;5.97;;;16.20;99.90;;;;;;4952901;29;20133;-86
2021/07/12 07:43:39;;;;;;;6.90;5.45;;;16.20;99.90;;;;;;4953994;28;20042;-87
2021/07/12 07:46:05;;;;;;;8.02;6.13;;;16.10;99.90;;;;;;4914056;28;20035;-86
2021/07/12 07:48:31;;;;;;;8.40;5.07;;;16.00;99.90;;;;;;4936156;28;20070;-87
2021/07/12 07:50:57;;;;;;;6.55;4.93;;;16.10;99.90;;;;;;4939763;29;20071;-86
2021/07/12 07:53:22;;;;;;;6.05;5.00;;;16.20;99.90;;;;;;4931022;28;20047;-86
2021/07/12 07:55:48;;;;;;;6.25;4.50;;;16.00;99.90;;;;;;4941978;28;20065;-86
2021/07/12 07:58:14;;;;;;;7.00;4.88;;;16.10;99.90;;;;;;4934304;29;20102;-87
2021/07/12 08:00:40;;;;;;;6.68;5.25;;;16.30;99.90;;;;;;4941999;28;20039;-87
2021/07/12 08:03:06;;;;;;;7.45;5.55;;;16.30;99.90;;;;;;4932926;28;20042;-87
2021/07/12 08:05:36;;;;;;;8.95;5.22;;;16.40;99.90;;;;;;4967811;28;20042;-87
2021/07/12 08:08:02;;;;;;;5.93;4.70;;;16.60;99.90;;;;;;4953663;28;20581;-87
2021/07/12 08:10:29;;;;;;;4.97;4.28;;;16.80;99.90;;;;;;4952323;28;20031;-89
2021/07/12 08:12:55;;;;;;;5.22;4.32;;;16.90;99.90;;;;;;4955822;28;20465;-88
2021/07/12 08:15:21;;;;;;;5.35;4.55;;;16.70;99.90;;;;;;4944782;28;20118;-88
2021/07/12 08:17:47;;;;;;;5.30;4.80;;;16.80;99.90;;;;;;4946294;29;20046;-87
2021/07/12 08:20:16;;;;;;;5.07;4.40;;;16.90;99.90;;;;;;4928063;29;20078;-87
2021/07/12 08:22:43;;;;;;;5.47;4.65;;;17.00;99.90;;;;;;4948797;28;20704;-89
2021/07/12 08:25:10;;;;;;;5.40;4.55;;;17.10;99.90;;;;;;4932704;29;20398;-88
2021/07/12 08:27:37;;;;;;;6.55;5.57;;;17.30;99.90;;;;;;4951208;28;20114;-91
2021/07/12 08:30:06;;;;;;;5.68;4.97;;;17.50;99.90;;;;;;4951484;28;20397;-88
2021/07/12 08:32:31;;;;;;;6.22;5.63;;;17.50;99.90;;;;;;4950365;29;20034;-87
2021/07/12 08:34:57;;;;;;;6.10;5.25;;;17.00;99.90;;;;;;4934419;29;20039;-86
2021/07/12 08:37:24;;;;;;;7.88;5.57;;;17.20;99.90;;;;;;4967793;28;20035;-87
2021/07/12 08:39:50;;;;;;;7.05;5.47;;;17.20;99.90;;;;;;4952991;28;20027;-88
2021/07/12 08:42:15;;;;;;;7.22;5.97;;;17.40;99.90;;;;;;4952187;28;20066;-88
2021/07/12 08:44:41;;;;;;;6.13;5.13;;;17.70;99.90;;;;;;4950809;28;20081;-87
2021/07/12 08:47:08;;;;;;;6.40;5.80;;;17.70;99.90;;;;;;4968421;28;20035;-86
2021/07/12 08:49:35;;;;;;;7.97;5.47;;;18.00;99.90;;;;;;4951030;28;20037;-89
2021/07/12 08:52:02;;;;;;;8.00;6.10;;;17.80;99.90;;;;;;4951885;28;20681;-88
2021/07/12 08:54:34;;;;;;;6.40;5.32;;;17.60;99.90;;;;;;4940641;29;20135;-88
2021/07/12 08:57:00;;;;;;;5.75;5.15;;;17.70;99.90;;;;;;4967702;28;20035;-87
2021/07/12 08:59:39;;;;;;;6.65;5.63;;;18.10;99.90;;;;;;4949410;28;20027;-87
2021/07/12 09:02:09;;;;;;;5.40;4.82;;;18.20;99.90;;;;;;4927916;29;20023;-88
2021/07/12 09:04:45;;;;;;;5.53;5.03;;;18.20;99.90;;;;;;4941667;28;20041;-88
2021/07/12 09:07:14;;;;;;;6.88;5.25;;;18.30;99.90;;;;;;4964623;28;20031;-88
2021/07/12 09:09:54;;;;;;;6.95;6.25;;;18.10;99.90;;;;;;4944054;28;20042;-89
2021/07/12 09:12:20;;;;;;;5.60;5.10;;;18.20;99.90;;;;;;4950816;28;20035;-90
2021/07/12 09:15:06;;;;;;;5.95;5.15;;;18.60;99.90;;;;;;4932167;28;20040;-90
2021/07/12 09:17:33;;;;;;;;;;;19.00;99.90;;;;;;4948752;28;20039;-87
2021/07/12 09:20:00;;;;;;;6.78;5.50;;;19.30;99.90;;;;;;4953563;28;19925;-87
2021/07/12 09:22:34;;;;;;;14.82;10.60;;;19.60;99.90;;;;;;4948708;28;20035;-87
2021/07/12 09:25:05;;;;;;;4.63;4.22;;;19.80;99.90;;;;;;4944458;28;20038;-87
2021/07/12 09:27:33;;;;;;;4.20;3.78;;;19.70;99.90;;;;;;4946365;28;20038;-87
2021/07/12 09:30:03;;;;;;;11.70;7.65;;;19.80;99.90;;;;;;4951818;28;20520;-87
2021/07/12 09:32:31;;;;;;;6.55;5.80;;;19.60;99.90;;;;;;4954059;28;20027;-88
2021/07/12 09:35:06;;;;;;;5.20;4.70;;;19.70;99.90;;;;;;4954623;28;20032;-88
2021/07/12 09:37:33;;;;;;;4.88;4.13;;;19.80;99.90;;;;;;4927906;29;20032;-88
2021/07/12 09:39:59;;;;;;;4.97;4.47;;;19.60;99.90;;;;;;4951222;28;20094;-88
2021/07/12 09:42:33;;;;;;;5.97;5.05;;;19.70;99.90;;;;;;4941528;28;20028;-87
2021/07/12 09:45:10;;;;;;;6.18;5.55;;;19.70;99.90;;;;;;4932354;29;20047;-88
2021/07/12 09:47:38;;;;;;;8.50;6.38;;;19.90;99.90;;;;;;4948398;28;20051;-87
2021/07/12 09:50:10;;;;;;;6.88;6.10;;;19.90;99.90;;;;;;4945005;28;20036;-89
2021/07/12 09:52:48;;;;;;;5.85;5.25;;;19.80;99.90;;;;;;4946627;29;20110;-87
2021/07/12 09:55:23;;;;;;;6.28;5.68;;;19.80;99.90;;;;;;4932751;29;20118;-87
2021/07/12 09:58:11;;;;;;;6.00;5.18;;;19.80;99.90;;;;;;4950659;28;20126;-89
2021/07/12 10:00:40;;;;;;;5.25;4.75;;;19.80;99.90;;;;;;4929583;29;20040;-89
2021/07/12 10:03:05;;;;;;;6.40;5.45;;;19.90;99.90;;;;;;4956218;28;20060;-86
2021/07/12 10:05:31;;;;;;;4.15;3.47;;;19.80;99.90;;;;;;4954121;28;20129;-88
2021/07/12 10:07:58;;;;;;;6.47;5.75;;;19.80;99.90;;;;;;4936137;29;20031;-86
2021/07/12 10:10:24;;;;;;;5.63;4.75;;;19.80;99.90;;;;;;4937217;28;20042;-87
2021/07/12 10:12:52;;;;;;;5.15;4.30;;;19.90;99.90;;;;;;4968073;28;20042;-88
2021/07/12 10:15:19;;;;;;;5.63;4.43;;;19.90;99.90;;;;;;4932984;29;20035;-88
2021/07/12 10:17:46;;;;;;;4.35;3.03;;;20.00;99.90;;;;;;4963077;28;20118;-88
2021/07/12 10:20:15;;;;;;;3.58;3.28;;;19.90;99.90;;;;;;4942227;28;20245;-87
2021/07/12 10:22:44;;;;;;;4.18;3.78;;;19.70;99.90;;;;;;4947300;28;20027;-88
2021/07/12 10:25:18;;;;;;;3.40;3.10;;;19.50;99.90;;;;;;4952529;29;20039;-88
2021/07/12 10:27:56;;;;;;;3.85;3.40;;;19.60;99.90;;;;;;4930763;29;20041;-87
2021/07/12 10:30:29;;;;;;;4.05;3.65;;;19.60;99.90;;;;;;4953410;29;20039;-87
2021/07/12 10:33:06;;;;;;;4.30;3.90;;;19.50;99.90;;;;;;4969933;28;20032;-87
2021/07/12 10:35:46;;;;;;;4.97;3.38;;;19.60;99.90;;;;;;4936274;29;20035;-88
2021/07/12 10:38:26;;;;;;;2.65;2.45;;;19.70;99.90;;;;;;4950193;29;20042;-87
2021/07/12 10:40:56;;;;;;;3.10;2.83;;;19.90;99.90;;;;;;4967662;28;20078;-87
2021/07/12 10:43:53;;;;;;;3.30;3.00;;;20.10;99.90;;;;;;4966926;28;20027;-87
2021/07/12 10:46:26;;;;;;;2.65;2.20;;;20.30;99.90;;;;;;4968309;28;20042;-86
2021/07/12 10:48:53;;;;;;;2.70;2.50;;;20.40;99.90;;;;;;4961186;28;20063;-88
2021/07/12 10:51:21;;;;;;;2.53;2.20;;;20.60;99.90;;;;;;4939540;29;20415;-86
2021/07/12 10:53:56;;;;;;;2.15;1.98;;;20.70;99.90;;;;;;4951348;28;20031;-84
2021/07/12 10:56:22;;;;;;;2.65;2.45;;;20.70;99.90;;;;;;4950298;29;20027;-88
2021/07/12 10:58:49;;;;;;;2.80;2.60;;;20.80;99.90;;;;;;4939800;29;20525;-87
2021/07/12 11:01:17;;;;;;;2.53;2.10;;;20.90;99.90;;;;;;4955067;29;20508;-87
2021/07/12 11:03:49;;;;;;;2.47;2.28;;;20.80;99.90;;;;;;4968349;28;20064;-86
2021/07/12 11:06:21;;;;;;;3.33;2.85;;;20.90;99.90;;;;;;4940270;29;20500;-87
2021/07/12 11:08:58;;;;;;;2.70;2.50;;;20.80;99.90;;;;;;4971384;28;20052;-88
2021/07/12 11:11:24;;;;;;;2.67;2.40;;;21.00;99.90;;;;;;4954655;29;20464;-88
2021/07/12 11:13:52;;;;;;;3.05;2.67;;;21.00;99.90;;;;;;4938719;29;20035;-87
2021/07/12 11:16:21;;;;;;;2.45;2.25;;;21.00;99.90;;;;;;4938044;29;20639;-90
2021/07/12 11:18:47;;;;;;;3.80;3.42;;;21.00;99.90;;;;;;4953993;28;20036;-89
2021/07/12 11:21:17;;;;;;;2.17;2.00;;;21.10;99.90;;;;;;4954307;29;20465;-87
2021/07/12 11:23:48;;;;;;;2.45;2.25;;;21.20;99.90;;;;;;4951038;28;20038;-87
2021/07/12 11:26:20;;;;;;;2.15;1.85;;;21.20;99.90;;;;;;4934933;29;20035;-85
2021/07/12 11:28:53;;;;;;;2.25;2.05;;;21.10;99.90;;;;;;4954541;28;20059;-85
2021/07/12 11:31:54;;;;;;;1.90;1.80;;;21.00;99.90;;;;;;4954143;28;20074;-87
2021/07/12 11:34:21;;;;;;;2.35;2.00;;;21.20;99.90;;;;;;4913782;28;20552;-87
2021/07/12 11:36:49;;;;;;;2.17;1.98;;;21.30;99.90;;;;;;4949955;28;20158;-87
2021/07/12 11:39:17;;;;;;;2.63;2.42;;;21.40;99.90;;;;;;4936284;28;20118;-87
2021/07/12 11:41:43;;;;;;;2.67;2.42;;;21.50;99.90;;;;;;4973624;28;20042;-88
2021/07/12 11:44:16;;;;;;;2.60;2.40;;;21.60;99.90;;;;;;4950598;28;20399;-88
2021/07/12 11:46:42;;;;;;;2.17;1.98;;;21.80;99.90;;;;;;4953385;29;20039;-86
2021/07/12 11:49:09;;;;;;;2.38;2.17;;;21.90;99.90;;;;;;4972494;28;20023;-86
2021/07/12 11:51:37;;;;;;;2.38;2.17;;;21.80;99.90;;;;;;4943236;28;20023;-88
2021/07/12 11:54:13;;;;;;;3.55;2.28;;;21.90;99.90;;;;;;4933808;29;20039;-85
2021/07/12 11:56:41;;;;;;;2.50;2.30;;;21.90;99.90;;;;;;4934755;29;20094;-85
2021/07/12 11:59:07;;;;;;;2.20;2.00;;;21.90;99.90;;;;;;4918776;29;20035;-85
2021/07/12 12:01:33;;;;;;;2.60;1.98;;;22.00;99.90;;;;;;4948249;29;20034;-86
2021/07/12 12:04:03;;;;;;;2.63;2.40;;;22.10;99.90;;;;;;4900878;29;20044;-87
2021/07/12 12:06:30;;;;;;;2.10;1.90;;;22.20;99.90;;;;;;4941333;29;20105;-84
2021/07/12 12:09:04;;;;;;;2.60;1.88;;;22.30;99.90;;;;;;4965010;28;20441;-88
2021/07/12 12:11:32;;;;;;;2.08;1.88;;;22.50;99.90;;;;;;4950341;29;20063;-88
2021/07/12 12:13:58;;;;;;;2.05;1.50;;;22.80;99.90;;;;;;4947402;28;20608;-85
2021/07/12 12:16:29;;;;;;;2.25;2.00;;;22.90;99.90;;;;;;4968422;28;20049;-83
2021/07/12 12:18:56;;;;;;;2.03;1.92;;;22.70;99.90;;;;;;4949541;28;20034;-86
2021/07/12 12:21:25;;;;;;;2.00;1.85;;;22.60;99.90;;;;;;4952577;28;20367;-86
2021/07/12 12:23:53;;;;;;;2.95;2.75;;;22.40;99.90;;;;;;4929941;28;20110;-86
2021/07/12 12:26:24;;;;;;;5.15;2.35;;;22.50;99.90;;;;;;4964199;28;20118;-85
2021/07/12 12:28:56;;;;;;;2.10;1.90;;;22.70;99.90;;;;;;4920758;28;20082;-87
2021/07/12 12:31:23;;;;;;;1.85;1.75;;;23.10;99.90;;;;;;4966350;28;20041;-85
2021/07/12 12:34:10;;;;;;;1.75;1.65;;;23.40;99.90;;;;;;4948994;28;20070;-86
2021/07/12 12:36:42;;;;;;;2.15;1.95;;;23.70;99.90;;;;;;4945025;29;20070;-86
2021/07/12 12:39:13;;;;;;;2.38;2.20;;;23.80;99.90;;;;;;4950926;28;20042;-87
2021/07/12 12:41:48;;;;;;;4.70;2.80;;;23.90;99.90;;;;;;4931740;29;20038;-85
2021/07/12 12:44:16;;;;;;;1.77;1.40;;;24.20;99.90;;;;;;4944407;28;20031;-86
2021/07/12 12:46:49;;;;;;;2.38;1.40;;;24.40;99.90;;;;;;4950595;29;20051;-87
2021/07/12 12:49:25;;;;;;;1.92;1.55;;;24.40;95.90;;;;;;4964254;28;20067;-86
2021/07/12 12:51:53;;;;;;;1.95;1.80;;;24.40;96.20;;;;;;4930115;29;20054;-86
2021/07/12 12:54:28;;;;;;;1.95;1.77;;;24.30;98.10;;;;;;4952352;28;20032;-85
2021/07/12 12:56:56;;;;;;;2.25;2.05;;;23.80;95.90;;;;;;4955974;28;20031;-86
2021/07/12 12:59:33;;;;;;;2.40;2.10;;;23.60;97.60;;;;;;4929496;28;20047;-86
2021/07/12 13:02:05;;;;;;;2.13;1.90;;;23.60;97.50;;;;;;4976210;28;20027;-86
2021/07/12 13:04:47;;;;;;;1.90;1.80;;;23.70;99.90;;;;;;4947372;28;20458;-86